Time;durP1;ratioP1;P1;durP2;ratioP2;P2;SDS_P1;SDS_P2;PMS_P1;PMS_P2;Temp;Humidity;BMP_temperature;BMP_pressure;BME280_temperature;BME280_humidity;BME280_pressure;Samples;Min_cycle;Max_cycle;Signal;HPM_P1;HPM_P2
2023/01/30 00:00:34;;;;;;;14.15;5.50;;;;;;;;;;5053370;28;20431;-69
2023/01/30 00:03:01;;;;;;;6.78;4.32;;;;;;;;;;5053530;28;20095;-69
2023/01/30 00:05:27;;;;;;;6.38;2.70;;;;;;;;;;5053623;28;20432;-69
2023/01/30 00:07:54;;;;;;;6.70;4.00;;;;;;;;;;5052434;28;20404;-69
2023/01/30 00:10:20;;;;;;;8.40;3.75;;;;;;;;;;5053721;28;20110;-69
2023/01/30 00:12:46;;;;;;;9.82;4.93;;;;;;;;;;5053323;28;20045;-69
2023/01/30 00:15:13;;;;;;;7.75;4.85;;;;;;;;;;5053504;28;20052;-69
2023/01/30 00:17:39;;;;;;;9.23;4.38;;;;;;;;;;5053248;28;20602;-69
2023/01/30 00:20:06;;;;;;;16.63;7.18;;;;;;;;;;5053134;28;20049;-69
2023/01/30 00:22:32;;;;;;;6.35;2.67;;;;;;;;;;5052032;28;20078;-69
2023/01/30 00:24:58;;;;;;;4.80;1.55;;;;;;;;;;5053437;28;20045;-69
2023/01/30 00:27:25;;;;;;;4.80;1.80;;;;;;;;;;5052990;28;20683;-69
2023/01/30 00:29:51;;;;;;;8.00;2.20;;;;;;;;;;5053312;28;20407;-69
2023/01/30 00:32:28;;;;;;;5.07;2.33;;;;;;;;;;5053261;28;20060;-69
2023/01/30 00:34:54;;;;;;;6.38;1.45;;;;;;;;;;5051987;28;20067;-69
2023/01/30 00:37:21;;;;;;;6.82;1.90;;;;;;;;;;5052989;28;20049;-69
2023/01/30 00:39:47;;;;;;;4.88;1.40;;;;;;;;;;5052730;28;20064;-68
2023/01/30 00:47:44;;;;;;;6.55;1.80;;;;;;;;;;5052756;28;20132;-69
2023/01/30 00:50:10;;;;;;;9.00;2.10;;;;;;;;;;5052618;28;20048;-69
2023/01/30 00:52:37;;;;;;;6.45;1.80;;;;;;;;;;5052906;28;20057;-69
2023/01/30 00:55:03;;;;;;;8.10;2.00;;;;;;;;;;5052813;28;20059;-68
2023/01/30 00:57:30;;;;;;;8.40;1.90;;;;;;;;;;5051561;28;20053;-69
2023/01/30 00:59:56;;;;;;;10.60;1.88;;;;;;;;;;5052653;28;20435;-69
2023/01/30 01:02:22;;;;;;;8.52;2.67;;;;;;;;;;5051250;28;20135;-69
2023/01/30 01:04:49;;;;;;;7.72;1.88;;;;;;;;;;5043600;28;20067;-69
2023/01/30 01:07:15;;;;;;;6.80;1.50;;;;;;;;;;5052061;28;20059;-69
2023/01/30 01:09:41;;;;;;;10.38;2.45;;;;;;;;;;5052582;28;20408;-69
2023/01/30 01:12:08;;;;;;;9.82;2.40;;;;;;;;;;5051960;28;20144;-69
2023/01/30 01:14:34;;;;;;;8.93;2.10;;;;;;;;;;5051210;28;20183;-69
2023/01/30 01:17:01;;;;;;;9.00;2.10;;;;;;;;;;5052155;28;20573;-69
2023/01/30 01:19:27;;;;;;;7.20;1.73;;;;;;;;;;5051995;28;20052;-69
2023/01/30 01:21:54;;;;;;;11.68;2.10;;;;;;;;;;5052423;28;20556;-69
2023/01/30 01:24:20;;;;;;;12.00;2.05;;;;;;;;;;5052179;28;20045;-69
2023/01/30 01:26:47;;;;;;;12.05;2.50;;;;;;;;;;5051957;28;20128;-70
2023/01/30 01:29:14;;;;;;;7.68;1.55;;;;;;;;;;5052217;28;20045;-69
2023/01/30 01:31:41;;;;;;;10.23;2.17;;;;;;;;;;5051976;28;20052;-69
2023/01/30 01:34:08;;;;;;;13.35;2.85;;;;;;;;;;5051839;28;20136;-70
2023/01/30 01:36:34;;;;;;;9.40;1.90;;;;;;;;;;5051762;28;20053;-69
2023/01/30 01:39:18;;;;;;;13.93;2.28;;;;;;;;;;5051774;28;20407;-69
2023/01/30 01:41:45;;;;;;;8.10;2.53;;;;;;;;;;5052002;28;20404;-69
2023/01/30 01:44:12;;;;;;;12.88;2.03;;;;;;;;;;5051807;28;20547;-69
2023/01/30 01:46:53;;;;;;;10.67;2.40;;;;;;;;;;5051560;28;20080;-69
2023/01/30 01:49:21;;;;;;;12.48;2.78;;;;;;;;;;5051426;28;20292;-69
2023/01/30 01:51:53;;;;;;;11.82;1.90;;;;;;;;;;5051726;28;20067;-69
2023/01/30 01:54:31;;;;;;;8.70;2.00;;;;;;;;;;5051958;28;20053;-69
2023/01/30 01:56:59;;;;;;;8.40;1.92;;;;;;;;;;5051538;28;20144;-69
2023/01/30 01:59:29;;;;;;;17.80;2.45;;;;;;;;;;5051457;28;20131;-69
2023/01/30 02:01:59;;;;;;;10.98;2.58;;;;;;;;;;5050550;28;20128;-69
2023/01/30 02:05:00;;;;;;;12.02;2.88;;;;;;;;;;5052132;28;20052;-69
2023/01/30 02:07:15;;;;;;;11.70;2.80;;;;;;;;;;5051259;28;20401;-69
2023/01/30 02:09:42;;;;;;;12.65;2.83;;;;;;;;;;5051646;28;20127;-69
2023/01/30 02:12:09;;;;;;;9.73;2.72;;;;;;;;;;5051391;28;20135;-69
2023/01/30 02:14:36;;;;;;;8.32;3.00;;;;;;;;;;5051394;28;20052;-69
2023/01/30 02:17:02;;;;;;;15.88;4.68;;;;;;;;;;5049976;28;20485;-69
2023/01/30 02:19:47;;;;;;;10.00;4.07;;;;;;;;;;5051342;28;20473;-69
2023/01/30 02:22:17;;;;;;;8.32;3.90;;;;;;;;;;5051268;28;20516;-70
2023/01/30 02:25:01;;;;;;;13.13;4.55;;;;;;;;;;5051392;28;20049;-69
2023/01/30 02:27:34;;;;;;;13.40;5.35;;;;;;;;;;5051263;28;20053;-70
2023/01/30 02:30:12;;;;;;;14.68;5.65;;;;;;;;;;5049931;28;20045;-70
2023/01/30 02:33:02;;;;;;;18.23;7.47;;;;;;;;;;5050169;28;20136;-69
2023/01/30 02:35:41;;;;;;;18.27;7.03;;;;;;;;;;5050917;28;20083;-69
2023/01/30 02:38:13;;;;;;;16.52;7.35;;;;;;;;;;5051430;28;20063;-69
2023/01/30 02:40:40;;;;;;;19.95;7.30;;;;;;;;;;5051130;28;20049;-69
2023/01/30 02:43:14;;;;;;;22.75;7.95;;;;;;;;;;5051023;28;20443;-69
2023/01/30 02:45:41;;;;;;;22.70;7.43;;;;;;;;;;5051141;28;20057;-69
2023/01/30 02:48:21;;;;;;;22.25;7.45;;;;;;;;;;5051423;28;20401;-69
2023/01/30 02:50:53;;;;;;;18.85;7.88;;;;;;;;;;5051318;28;20076;-69
2023/01/30 02:53:20;;;;;;;22.42;9.13;;;;;;;;;;5051010;28;20053;-69
2023/01/30 02:55:46;;;;;;;23.20;8.02;;;;;;;;;;5051287;28;20070;-69
2023/01/30 02:58:14;;;;;;;25.13;8.73;;;;;;;;;;5051301;28;20403;-69
2023/01/30 03:00:50;;;;;;;20.30;8.50;;;;;;;;;;5052436;28;20045;-69
2023/01/30 03:03:16;;;;;;;23.90;7.68;;;;;;;;;;5054973;28;20049;-69
2023/01/30 03:05:42;;;;;;;21.00;8.00;;;;;;;;;;5054510;28;20542;-69
2023/01/30 03:08:18;;;;;;;24.67;8.10;;;;;;;;;;5054535;28;20511;-69
2023/01/30 03:10:47;;;;;;;21.40;6.55;;;;;;;;;;5053458;28;20059;-69
2023/01/30 03:13:31;;;;;;;20.30;6.68;;;;;;;;;;5054563;28;20576;-69
2023/01/30 03:16:09;;;;;;;20.40;6.68;;;;;;;;;;5054505;28;20074;-69
2023/01/30 03:18:39;;;;;;;24.10;6.05;;;;;;;;;;5054810;28;20427;-69
2023/01/30 03:21:05;;;;;;;22.80;7.05;;;;;;;;;;5054245;28;20037;-69
2023/01/30 03:23:32;;;;;;;17.05;6.47;;;;;;;;;;5054653;28;20081;-69
2023/01/30 03:25:59;;;;;;;21.98;6.10;;;;;;;;;;5054268;28;20053;-69
2023/01/30 03:28:26;;;;;;;21.13;6.40;;;;;;;;;;5054279;28;20131;-69
2023/01/30 03:30:52;;;;;;;20.85;6.10;;;;;;;;;;5054135;28;20372;-69
2023/01/30 03:33:18;;;;;;;16.95;6.18;;;;;;;;;;5054393;28;20057;-69
2023/01/30 03:35:45;;;;;;;18.95;6.05;;;;;;;;;;5054481;28;20063;-69
2023/01/30 03:38:12;;;;;;;18.02;6.10;;;;;;;;;;5054268;28;20136;-69
2023/01/30 03:40:38;;;;;;;21.63;6.72;;;;;;;;;;5054001;28;20092;-69
2023/01/30 03:43:05;;;;;;;20.20;7.40;;;;;;;;;;5053875;28;20500;-69
2023/01/30 03:45:31;;;;;;;19.15;7.13;;;;;;;;;;5053737;28;20088;-69
2023/01/30 03:47:58;;;;;;;18.15;7.18;;;;;;;;;;5053783;28;20632;-69
2023/01/30 03:50:24;;;;;;;18.98;7.05;;;;;;;;;;5052750;28;20061;-69
2023/01/30 03:52:50;;;;;;;20.65;7.10;;;;;;;;;;5054075;28;20048;-69
2023/01/30 03:55:17;;;;;;;23.77;8.02;;;;;;;;;;5053709;28;20587;-69
2023/01/30 03:57:44;;;;;;;20.73;8.52;;;;;;;;;;5053734;28;20053;-69
2023/01/30 04:00:10;;;;;;;22.90;7.55;;;;;;;;;;5053494;28;20045;-69
2023/01/30 04:02:37;;;;;;;23.63;7.63;;;;;;;;;;5053955;28;20411;-69
2023/01/30 04:05:04;;;;;;;20.93;7.90;;;;;;;;;;5052290;28;20493;-69
2023/01/30 04:07:30;;;;;;;21.40;8.35;;;;;;;;;;5053512;28;20049;-69
2023/01/30 04:09:57;;;;;;;26.45;8.52;;;;;;;;;;5053402;28;20057;-69
2023/01/30 04:12:23;;;;;;;23.23;8.63;;;;;;;;;;5052656;28;20061;-69
2023/01/30 04:14:49;;;;;;;30.55;8.85;;;;;;;;;;5053299;28;20497;-70
2023/01/30 04:17:16;;;;;;;25.08;8.32;;;;;;;;;;5052343;28;20137;-69
2023/01/30 04:19:42;;;;;;;31.08;8.93;;;;;;;;;;5053203;28;20049;-70
2023/01/30 04:22:09;;;;;;;28.00;9.73;;;;;;;;;;5053467;28;20128;-70
2023/01/30 04:24:35;;;;;;;29.00;9.90;;;;;;;;;;5053432;28;20450;-70
2023/01/30 04:27:01;;;;;;;36.55;10.15;;;;;;;;;;5053114;28;20048;-70
2023/01/30 04:29:28;;;;;;;26.55;9.57;;;;;;;;;;5053032;28;20059;-70
2023/01/30 04:31:54;;;;;;;27.65;9.25;;;;;;;;;;5053282;28;20071;-69
2023/01/30 04:34:20;;;;;;;24.88;9.32;;;;;;;;;;5053115;28;20052;-69
2023/01/30 04:36:47;;;;;;;22.42;8.25;;;;;;;;;;5053080;28;20041;-69
2023/01/30 04:39:13;;;;;;;22.35;7.07;;;;;;;;;;5053212;28;20056;-69
2023/01/30 04:41:39;;;;;;;15.55;5.65;;;;;;;;;;5053202;28;20051;-69
2023/01/30 04:44:06;;;;;;;16.08;5.57;;;;;;;;;;5052812;28;20404;-69
2023/01/30 04:46:32;;;;;;;14.18;4.63;;;;;;;;;;5052594;28;20055;-69
2023/01/30 04:48:58;;;;;;;12.95;4.47;;;;;;;;;;5052745;28;20044;-69
2023/01/30 04:51:25;;;;;;;15.73;4.22;;;;;;;;;;5052581;28;20483;-69
2023/01/30 04:53:51;;;;;;;17.75;4.30;;;;;;;;;;5052686;28;20047;-69
2023/01/30 04:56:18;;;;;;;11.50;3.20;;;;;;;;;;5051337;28;20051;-69
2023/01/30 04:58:44;;;;;;;13.45;2.53;;;;;;;;;;5052684;28;20389;-69
2023/01/30 05:01:14;;;;;;;13.88;2.35;;;;;;;;;;5052629;28;20045;-69
2023/01/30 05:03:40;;;;;;;12.65;2.35;;;;;;;;;;5052459;28;20041;-69
2023/01/30 05:06:06;;;;;;;10.73;2.10;;;;;;;;;;5052572;28;20044;-69
2023/01/30 05:08:33;;;;;;;11.50;2.85;;;;;;;;;;5051071;28;20056;-69
2023/01/30 05:10:59;;;;;;;11.82;2.28;;;;;;;;;;5052260;28;20059;-69
2023/01/30 05:13:25;;;;;;;13.23;2.47;;;;;;;;;;5052485;28;20160;-69
2023/01/30 05:15:52;;;;;;;10.15;2.33;;;;;;;;;;5052447;28;20052;-69
2023/01/30 05:18:18;;;;;;;11.60;2.65;;;;;;;;;;5051221;28;20068;-69
2023/01/30 05:20:44;;;;;;;10.32;2.00;;;;;;;;;;5052230;28;20045;-69
2023/01/30 05:23:11;;;;;;;12.38;2.15;;;;;;;;;;5051935;28;20051;-69
2023/01/30 05:25:37;;;;;;;18.17;3.47;;;;;;;;;;5051627;28;20049;-69
2023/01/30 05:28:03;;;;;;;13.38;2.20;;;;;;;;;;5051920;28;20560;-69
2023/01/30 05:30:30;;;;;;;13.65;3.25;;;;;;;;;;5052273;28;20159;-69
2023/01/30 05:32:57;;;;;;;13.30;2.63;;;;;;;;;;5051980;28;20056;-69
2023/01/30 05:35:23;;;;;;;11.05;2.30;;;;;;;;;;5051966;28;20059;-69
2023/01/30 05:37:50;;;;;;;11.82;2.42;;;;;;;;;;5052050;28;20137;-69
2023/01/30 05:40:17;;;;;;;13.32;2.35;;;;;;;;;;5051711;28;20127;-69
2023/01/30 05:42:43;;;;;;;11.80;2.15;;;;;;;;;;5052070;28;20064;-69
2023/01/30 05:45:10;;;;;;;12.05;2.42;;;;;;;;;;5051691;28;20135;-69
2023/01/30 05:47:36;;;;;;;14.15;2.75;;;;;;;;;;5051762;28;20159;-69
2023/01/30 05:50:02;;;;;;;15.15;2.70;;;;;;;;;;5051615;28;20045;-69
2023/01/30 05:52:30;;;;;;;13.63;2.95;;;;;;;;;;5051589;28;20416;-69
2023/01/30 05:54:56;;;;;;;13.98;3.08;;;;;;;;;;5050567;28;20041;-69
2023/01/30 05:57:22;;;;;;;11.65;2.65;;;;;;;;;;5051694;28;20057;-70
2023/01/30 05:59:49;;;;;;;11.48;2.33;;;;;;;;;;5051454;28;20067;-70
2023/01/30 06:02:15;;;;;;;21.83;3.78;;;;;;;;;;5051469;28;20059;-69
2023/01/30 06:04:41;;;;;;;17.45;2.85;;;;;;;;;;5051594;28;20049;-69
2023/01/30 06:07:08;;;;;;;15.43;2.78;;;;;;;;;;5051348;28;20037;-69
2023/01/30 06:09:34;;;;;;;17.52;3.17;;;;;;;;;;5051744;28;20053;-70
2023/01/30 06:12:00;;;;;;;15.30;2.83;;;;;;;;;;5051357;28;20055;-70
2023/01/30 06:14:27;;;;;;;11.35;2.50;;;;;;;;;;5051354;28;20049;-69
2023/01/30 06:16:53;;;;;;;15.52;2.67;;;;;;;;;;5051426;28;20061;-69
2023/01/30 06:19:19;;;;;;;15.20;3.05;;;;;;;;;;5051718;28;20053;-69
2023/01/30 06:21:46;;;;;;;12.05;2.38;;;;;;;;;;5051235;28;20045;-69
2023/01/30 06:24:12;;;;;;;12.55;2.95;;;;;;;;;;5051248;28;20484;-68
2023/01/30 06:26:39;;;;;;;12.05;2.50;;;;;;;;;;5051271;28;20049;-69
2023/01/30 06:29:05;;;;;;;16.45;3.38;;;;;;;;;;5051350;28;20053;-70
2023/01/30 06:31:31;;;;;;;12.65;3.00;;;;;;;;;;5051295;28;20131;-69
2023/01/30 06:33:58;;;;;;;16.23;2.67;;;;;;;;;;5050289;28;20068;-69
2023/01/30 06:36:24;;;;;;;13.10;2.65;;;;;;;;;;5053675;28;20049;-69
2023/01/30 06:38:51;;;;;;;11.77;2.50;;;;;;;;;;5055356;28;20141;-69
2023/01/30 06:41:17;;;;;;;20.02;3.60;;;;;;;;;;5055174;28;20048;-69
2023/01/30 06:43:43;;;;;;;11.88;2.75;;;;;;;;;;5055100;28;20059;-69
2023/01/30 06:46:10;;;;;;;12.25;2.75;;;;;;;;;;5054966;28;20053;-69
2023/01/30 06:48:36;;;;;;;11.52;2.42;;;;;;;;;;5055069;28;20041;-69
2023/01/30 06:51:03;;;;;;;10.13;1.90;;;;;;;;;;5054976;28;20140;-69
2023/01/30 06:53:29;;;;;;;15.20;3.38;;;;;;;;;;5055085;28;20075;-69
2023/01/30 06:55:56;;;;;;;12.00;2.83;;;;;;;;;;5055079;28;20482;-69
2023/01/30 06:58:23;;;;;;;15.50;2.63;;;;;;;;;;5055131;28;20411;-69
2023/01/30 07:00:49;;;;;;;13.82;2.58;;;;;;;;;;5055714;28;20304;-69
2023/01/30 07:03:16;;;;;;;12.50;2.40;;;;;;;;;;5054831;28;20152;-69
2023/01/30 07:05:44;;;;;;;14.73;2.78;;;;;;;;;;5054642;28;20041;-69
2023/01/30 07:08:10;;;;;;;14.68;2.42;;;;;;;;;;5054615;28;20128;-69
2023/01/30 07:10:37;;;;;;;19.17;3.40;;;;;;;;;;5054845;28;20127;-68
2023/01/30 07:13:03;;;;;;;14.20;2.42;;;;;;;;;;5055069;28;20486;-69
2023/01/30 07:15:31;;;;;;;14.93;2.83;;;;;;;;;;5054397;28;20051;-69
2023/01/30 07:17:57;;;;;;;13.65;2.60;;;;;;;;;;5054460;28;20107;-69
2023/01/30 07:20:24;;;;;;;13.35;2.63;;;;;;;;;;5054578;28;20051;-70
2023/01/30 07:22:51;;;;;;;13.98;2.90;;;;;;;;;;5054351;28;20041;-67
2023/01/30 07:25:18;;;;;;;16.88;2.78;;;;;;;;;;5054029;28;20626;-67
2023/01/30 07:27:58;;;;;;;12.82;3.03;;;;;;;;;;5054263;28;20091;-69
2023/01/30 07:30:25;;;;;;;13.85;3.08;;;;;;;;;;5053936;28;20048;-69
2023/01/30 07:32:53;;;;;;;13.73;3.07;;;;;;;;;;5034080;28;20038;-70
2023/01/30 07:35:20;;;;;;;13.02;3.55;;;;;;;;;;5033609;28;20046;-69
2023/01/30 07:37:47;;;;;;;13.73;3.05;;;;;;;;;;5033245;28;20482;-69
2023/01/30 07:40:14;;;;;;;12.47;3.13;;;;;;;;;;5033228;28;20137;-69
2023/01/30 07:42:41;;;;;;;11.35;2.45;;;;;;;;;;5033299;28;20045;-70
2023/01/30 07:45:07;;;;;;;9.90;2.53;;;;;;;;;;5032899;28;20409;-69
2023/01/30 07:47:34;;;;;;;9.48;2.78;;;;;;;;;;5032567;28;20041;-69
2023/01/30 07:50:00;;;;;;;14.55;2.90;;;;;;;;;;5033352;28;20049;-70
2023/01/30 07:52:27;;;;;;;14.90;3.38;;;;;;;;;;5033165;28;20398;-70
2023/01/30 07:54:53;;;;;;;11.90;2.63;;;;;;;;;;5033383;28;20508;-69
2023/01/30 07:57:20;;;;;;;19.38;3.72;;;;;;;;;;5031696;28;20502;-69
2023/01/30 07:59:46;;;;;;;17.98;3.90;;;;;;;;;;5033336;28;20148;-69
2023/01/30 08:02:12;;;;;;;12.75;3.20;;;;;;;;;;5033416;28;20052;-69
2023/01/30 08:04:39;;;;;;;17.10;4.43;;;;;;;;;;5033472;28;20045;-69
2023/01/30 08:07:05;;;;;;;17.70;4.50;;;;;;;;;;5039691;28;20489;-69
2023/01/30 08:09:31;;;;;;;12.57;3.83;;;;;;;;;;5044575;28;20045;-74
2023/01/30 08:11:58;;;;;;;11.25;3.72;;;;;;;;;;5033035;28;20046;-70
2023/01/30 08:14:24;;;;;;;13.10;4.35;;;;;;;;;;5033249;28;20049;-71
2023/01/30 08:16:51;;;;;;;15.27;4.65;;;;;;;;;;5033238;28;20807;-71
2023/01/30 08:19:17;;;;;;;17.63;5.10;;;;;;;;;;5032822;28;20057;-72
2023/01/30 08:21:44;;;;;;;12.77;4.25;;;;;;;;;;5038317;28;20045;-68
2023/01/30 08:24:10;;;;;;;16.15;4.93;;;;;;;;;;5053183;28;20570;-68
2023/01/30 08:26:36;;;;;;;14.10;4.32;;;;;;;;;;5053160;28;20055;-69
2023/01/30 08:29:03;;;;;;;15.10;5.00;;;;;;;;;;5053313;28;20049;-69
2023/01/30 08:31:30;;;;;;;12.37;4.17;;;;;;;;;;5033317;28;20144;-69
2023/01/30 08:33:56;;;;;;;15.50;4.32;;;;;;;;;;5053117;28;20477;-69
2023/01/30 08:36:23;;;;;;;16.10;4.85;;;;;;;;;;5035219;28;20049;-68
2023/01/30 08:38:49;;;;;;;14.93;4.40;;;;;;;;;;5037651;28;20072;-69
2023/01/30 08:41:15;;;;;;;17.25;5.05;;;;;;;;;;5032221;28;20119;-69
2023/01/30 08:43:42;;;;;;;15.30;4.93;;;;;;;;;;5039466;28;20496;-70
2023/01/30 08:46:08;;;;;;;16.65;4.85;;;;;;;;;;5052723;28;20064;-70
2023/01/30 08:48:37;;;;;;;12.35;4.38;;;;;;;;;;5053001;28;20041;-70
2023/01/30 08:51:15;;;;;;;12.23;4.72;;;;;;;;;;5052760;28;20051;-69
2023/01/30 08:53:41;;;;;;;12.85;4.03;;;;;;;;;;5052594;28;20404;-69
2023/01/30 08:56:08;;;;;;;12.80;4.20;;;;;;;;;;5051662;28;20163;-70
2023/01/30 08:58:34;;;;;;;12.63;4.30;;;;;;;;;;5052687;28;20064;-69
2023/01/30 09:01:04;;;;;;;16.65;4.05;;;;;;;;;;5052561;28;20072;-68
2023/01/30 09:03:30;;;;;;;8.77;3.28;;;;;;;;;;5052441;28;20081;-70
2023/01/30 09:05:56;;;;;;;10.98;3.53;;;;;;;;;;5052582;28;20045;-70
2023/01/30 09:08:23;;;;;;;12.65;4.00;;;;;;;;;;5052301;28;20045;-70
2023/01/30 09:10:49;;;;;;;13.95;4.47;;;;;;;;;;5044670;28;20521;-70
2023/01/30 09:13:16;;;;;;;16.10;5.97;;;;;;;;;;5031859;28;20482;-71
2023/01/30 09:15:43;;;;;;;13.23;4.15;;;;;;;;;;5030607;28;20128;-70
2023/01/30 09:18:09;;;;;;;15.10;5.63;;;;;;;;;;5032009;28;20073;-70
2023/01/30 09:20:37;;;;;;;18.85;5.78;;;;;;;;;;5031640;28;20044;-69
2023/01/30 09:23:04;;;;;;;34.75;11.85;;;;;;;;;;5031639;28;20433;-71
2023/01/30 09:25:30;;;;;;;45.60;18.77;;;;;;;;;;5043740;28;20483;-70
2023/01/30 09:27:56;;;;;;;31.45;11.93;;;;;;;;;;5050564;28;20123;-70
2023/01/30 09:30:23;;;;;;;27.88;9.02;;;;;;;;;;5032146;28;20394;-70
2023/01/30 09:32:49;;;;;;;21.88;7.68;;;;;;;;;;5030373;28;20092;-70
2023/01/30 09:35:16;;;;;;;21.38;6.18;;;;;;;;;;5032362;28;20053;-71
2023/01/30 09:37:47;;;;;;;13.15;4.50;;;;;;;;;;5031367;28;20045;-70
2023/01/30 09:40:15;;;;;;;12.98;4.45;;;;;;;;;;5036257;28;20060;-71
2023/01/30 09:42:50;;;;;;;15.15;3.83;;;;;;;;;;5035105;28;20073;-71
2023/01/30 09:45:20;;;;;;;13.23;3.95;;;;;;;;;;5031275;28;20140;-70
2023/01/30 09:48:02;;;;;;;18.20;4.57;;;;;;;;;;5031297;28;20520;-70
2023/01/30 09:50:28;;;;;;;14.68;4.93;;;;;;;;;;5031309;28;20520;-70
2023/01/30 09:52:59;;;;;;;15.60;5.00;;;;;;;;;;5033996;28;20081;-70
2023/01/30 09:55:28;;;;;;;12.93;4.53;;;;;;;;;;5032212;28;20532;-70
2023/01/30 09:57:56;;;;;;;85.43;43.42;;;;;;;;;;5048777;28;20076;-70
2023/01/30 10:00:29;;;;;;;95.80;48.13;;;;;;;;;;5036369;28;20049;-69
2023/01/30 10:03:02;;;;;;;35.53;20.02;;;;;;;;;;5050597;28;20043;-69
2023/01/30 10:05:34;;;;;;;26.67;12.48;;;;;;;;;;5051567;28;20473;-69
2023/01/30 10:08:39;;;;;;;23.17;11.75;;;;;;;;;;5051708;28;20045;-69
2023/01/30 10:11:05;;;;;;;42.53;28.63;;;;;;;;;;5048576;28;20071;-69
2023/01/30 10:13:42;;;;;;;82.03;56.00;;;;;;;;;;5033081;28;20049;-69
2023/01/30 10:16:08;;;;;;;62.78;42.65;;;;;;;;;;5041070;28;20136;-69
2023/01/30 10:18:54;;;;;;;62.67;43.25;;;;;;;;;;5051467;28;20123;-69
2023/01/30 10:21:32;;;;;;;45.03;32.08;;;;;;;;;;5038678;28;20576;-70
2023/01/30 10:23:58;;;;;;;67.88;40.78;;;;;;;;;;5051096;28;20041;-70
2023/01/30 10:26:26;;;;;;;53.65;37.17;;;;;;;;;;5049142;28;20049;-71
2023/01/30 10:29:04;;;;;;;34.42;25.42;;;;;;;;;;5029984;28;20041;-71
2023/01/30 10:31:41;;;;;;;22.67;14.38;;;;;;;;;;5036327;28;20060;-70
2023/01/30 10:34:17;;;;;;;19.17;10.88;;;;;;;;;;5051006;28;20063;-71
2023/01/30 10:36:55;;;;;;;21.90;11.88;;;;;;;;;;5030585;28;20542;-72
2023/01/30 10:39:29;;;;;;;13.82;3.33;;;;;;;;;;5049249;28;20156;-71
2023/01/30 10:42:10;;;;;;;10.27;2.67;;;;;;;;;;5050300;28;20049;-71
2023/01/30 10:44:38;;;;;;;11.65;2.25;;;;;;;;;;5049569;28;20047;-71
2023/01/30 10:47:11;;;;;;;9.55;2.58;;;;;;;;;;5050989;28;20043;-72
2023/01/30 10:49:39;;;;;;;11.73;3.03;;;;;;;;;;5050661;28;20041;-72
2023/01/30 10:52:11;;;;;;;10.70;2.72;;;;;;;;;;5050961;28;20041;-72
2023/01/30 10:54:41;;;;;;;9.13;2.47;;;;;;;;;;5049350;28;20570;-71
2023/01/30 10:57:17;;;;;;;9.20;2.53;;;;;;;;;;5049747;28;20103;-70
2023/01/30 10:59:49;;;;;;;10.25;2.58;;;;;;;;;;5050912;28;20044;-71
2023/01/30 11:02:22;;;;;;;11.50;2.80;;;;;;;;;;5050512;28;20507;-72
2023/01/30 11:04:59;;;;;;;12.00;2.80;;;;;;;;;;5050543;28;20460;-71
2023/01/30 11:07:28;;;;;;;8.30;3.10;;;;;;;;;;5050804;28;20140;-71
2023/01/30 11:09:56;;;;;;;12.60;2.80;;;;;;;;;;5050415;28;20136;-72
2023/01/30 11:12:22;;;;;;;;;;;;;;;;;;5051186;28;20144;-73
2023/01/30 11:14:53;;;;;;;8.40;2.90;;;;;;;;;;5049497;28;20015;-72
2023/01/30 11:17:21;;;;;;;11.38;3.40;;;;;;;;;;5050797;28;20168;-71
2023/01/30 11:20:00;;;;;;;8.48;2.40;;;;;;;;;;5049464;28;20076;-72
2023/01/30 11:22:27;;;;;;;8.13;2.58;;;;;;;;;;5051456;28;20163;-71
2023/01/30 11:25:01;;;;;;;8.23;2.95;;;;;;;;;;5053858;28;20497;-72
2023/01/30 11:27:28;;;;;;;9.02;2.40;;;;;;;;;;5054182;28;20136;-70
2023/01/30 11:30:06;;;;;;;9.48;2.55;;;;;;;;;;5052501;28;20047;-71
2023/01/30 11:32:32;;;;;;;9.82;2.40;;;;;;;;;;5053996;28;20159;-72
2023/01/30 11:35:05;;;;;;;12.68;2.67;;;;;;;;;;5053970;28;20417;-71
2023/01/30 11:37:33;;;;;;;8.50;2.15;;;;;;;;;;5033496;28;20045;-70
2023/01/30 11:40:06;;;;;;;9.90;2.15;;;;;;;;;;5033775;28;20551;-71
2023/01/30 11:42:32;;;;;;;9.13;2.50;;;;;;;;;;5046401;28;20045;-71
2023/01/30 11:44:59;;;;;;;5.72;2.05;;;;;;;;;;5045569;28;20057;-72
2023/01/30 11:47:50;;;;;;;10.95;2.85;;;;;;;;;;5052161;28;20587;-71
2023/01/30 11:50:26;;;;;;;7.85;2.80;;;;;;;;;;5053930;28;20075;-71
2023/01/30 11:53:00;;;;;;;8.80;2.45;;;;;;;;;;5054068;28;20048;-71
2023/01/30 11:55:32;;;;;;;13.43;3.33;;;;;;;;;;5054116;28;20083;-71
2023/01/30 11:58:07;;;;;;;8.55;2.20;;;;;;;;;;5053932;28;20049;-70
2023/01/30 12:00:38;;;;;;;12.65;2.45;;;;;;;;;;5054054;28;20057;-70
2023/01/30 12:03:09;;;;;;;11.80;2.90;;;;;;;;;;5053527;28;20049;-70
2023/01/30 12:05:41;;;;;;;8.05;2.20;;;;;;;;;;5053925;28;20052;-70
2023/01/30 12:08:22;;;;;;;9.88;2.10;;;;;;;;;;5053677;28;20136;-70
2023/01/30 12:11:22;;;;;;;12.48;2.30;;;;;;;;;;5053670;28;20045;-70
2023/01/30 12:13:49;;;;;;;8.63;2.20;;;;;;;;;;5036405;28;20064;-70
2023/01/30 12:16:18;;;;;;;9.48;2.70;;;;;;;;;;5033245;28;20421;-70
2023/01/30 12:18:54;;;;;;;9.95;2.25;;;;;;;;;;5041682;28;20132;-70
2023/01/30 12:21:22;;;;;;;;;;;;;;;;;;5033040;28;20057;-70
2023/01/30 12:23:55;;;;;;;9.85;2.35;;;;;;;;;;5033402;28;19921;-70
2023/01/30 12:26:29;;;;;;;12.48;2.53;;;;;;;;;;5052049;28;20045;-70
2023/01/30 12:29:02;;;;;;;9.65;2.20;;;;;;;;;;5053371;28;20045;-70
2023/01/30 12:31:35;;;;;;;8.95;2.30;;;;;;;;;;5053396;28;20488;-70
2023/01/30 12:34:02;;;;;;;9.57;2.53;;;;;;;;;;5051223;28;20131;-70
2023/01/30 12:36:34;;;;;;;6.85;2.22;;;;;;;;;;5053051;28;20124;-70
2023/01/30 12:39:04;;;;;;;11.57;2.38;;;;;;;;;;5053214;28;20045;-70
2023/01/30 12:41:37;;;;;;;6.55;2.17;;;;;;;;;;5051962;28;20044;-70
2023/01/30 12:44:11;;;;;;;8.52;2.20;;;;;;;;;;5046356;28;20071;-70
2023/01/30 12:47:17;;;;;;;8.73;2.35;;;;;;;;;;5038579;28;20055;-70
2023/01/30 12:49:55;;;;;;;12.23;2.20;;;;;;;;;;5043365;28;20141;-70
2023/01/30 12:52:37;;;;;;;10.90;2.42;;;;;;;;;;5050356;28;20496;-70
2023/01/30 12:55:29;;;;;;;9.73;2.58;;;;;;;;;;5039896;28;20053;-70
2023/01/30 12:58:00;;;;;;;11.02;2.88;;;;;;;;;;5051718;28;20055;-70
2023/01/30 13:00:41;;;;;;;10.77;2.60;;;;;;;;;;5049075;28;20135;-70
2023/01/30 13:03:08;;;;;;;10.68;2.40;;;;;;;;;;5044123;28;20552;-70
2023/01/30 13:05:37;;;;;;;12.70;2.85;;;;;;;;;;5048795;28;20501;-70
2023/01/30 13:08:09;;;;;;;11.57;2.38;;;;;;;;;;5042539;28;20045;-70
2023/01/30 13:10:42;;;;;;;12.02;2.35;;;;;;;;;;5050021;28;20043;-71
2023/01/30 13:13:14;;;;;;;13.68;3.08;;;;;;;;;;5031933;28;20128;-71
2023/01/30 13:15:41;;;;;;;12.35;3.03;;;;;;;;;;5032032;28;20494;-71
2023/01/30 13:18:14;;;;;;;11.00;2.40;;;;;;;;;;5030665;28;20056;-71
2023/01/30 13:20:43;;;;;;;8.90;3.10;;;;;;;;;;5031730;28;20051;-71
2023/01/30 13:23:11;;;;;;;11.05;2.40;;;;;;;;;;5032078;28;20367;-71
2023/01/30 13:25:57;;;;;;;11.30;2.40;;;;;;;;;;5045066;28;20079;-70
2023/01/30 13:28:26;;;;;;;9.35;2.75;;;;;;;;;;5052029;28;20051;-71
2023/01/30 13:30:54;;;;;;;10.68;2.55;;;;;;;;;;5042148;28;20049;-72
2023/01/30 13:33:26;;;;;;;8.27;2.20;;;;;;;;;;5031714;28;20239;-71
2023/01/30 13:36:01;;;;;;;11.75;2.88;;;;;;;;;;5037658;28;20511;-73
2023/01/30 13:38:28;;;;;;;10.02;3.03;;;;;;;;;;5043349;28;20053;-74
2023/01/30 13:40:56;;;;;;;8.95;3.13;;;;;;;;;;5052128;28;20049;-72
2023/01/30 13:43:25;;;;;;;8.98;2.38;;;;;;;;;;5051747;28;20048;-72
2023/01/30 13:45:54;;;;;;;7.78;2.03;;;;;;;;;;5031068;28;20504;-70
2023/01/30 13:48:27;;;;;;;10.18;2.80;;;;;;;;;;5039646;28;20129;-71
2023/01/30 13:51:11;;;;;;;8.40;3.42;;;;;;;;;;5032061;28;20068;-72
2023/01/30 13:53:44;;;;;;;10.05;6.13;;;;;;;;;;5031864;28;20053;-73
2023/01/30 13:56:21;;;;;;;9.98;5.05;;;;;;;;;;5049143;28;20041;-71
2023/01/30 13:59:15;;;;;;;7.53;2.90;;;;;;;;;;5051715;28;20107;-69
2023/01/30 14:02:00;;;;;;;9.35;2.75;;;;;;;;;;5052195;28;20136;-69
2023/01/30 14:04:39;;;;;;;8.25;2.53;;;;;;;;;;5031627;28;20122;-72
2023/01/30 14:07:09;;;;;;;5.95;2.50;;;;;;;;;;5048575;28;20144;-72
2023/01/30 14:09:36;;;;;;;9.50;2.20;;;;;;;;;;5051910;28;20164;-73
2023/01/30 14:12:02;;;;;;;9.43;2.67;;;;;;;;;;5031285;28;20460;-72
2023/01/30 14:14:35;;;;;;;7.63;2.00;;;;;;;;;;5040832;28;20053;-74
2023/01/30 14:17:15;;;;;;;7.68;2.40;;;;;;;;;;5037100;28;20053;-73
2023/01/30 14:19:52;;;;;;;7.22;2.17;;;;;;;;;;5031191;28;20184;-71
2023/01/30 14:22:27;;;;;;;5.63;1.95;;;;;;;;;;5035303;28;20087;-72
2023/01/30 14:25:12;;;;;;;9.25;2.50;;;;;;;;;;5045974;28;20083;-74
2023/01/30 14:27:38;;;;;;;7.63;2.72;;;;;;;;;;5046037;28;20124;-72
2023/01/30 14:30:25;;;;;;;8.15;2.22;;;;;;;;;;5035725;28;20048;-72
2023/01/30 14:32:53;;;;;;;7.03;2.25;;;;;;;;;;5029631;28;20063;-71
2023/01/30 14:35:21;;;;;;;7.38;2.35;;;;;;;;;;5031271;28;20101;-71
2023/01/30 14:37:49;;;;;;;8.18;2.45;;;;;;;;;;5029566;28;20054;-72
2023/01/30 14:40:28;;;;;;;9.63;2.70;;;;;;;;;;5037807;28;20076;-71
2023/01/30 14:43:16;;;;;;;9.50;2.53;;;;;;;;;;5043576;28;20099;-70
2023/01/30 14:46:02;;;;;;;8.82;3.38;;;;;;;;;;5030847;28;20388;-70
2023/01/30 14:48:35;;;;;;;12.05;3.03;;;;;;;;;;5048280;28;20053;-71
2023/01/30 14:51:18;;;;;;;10.45;3.03;;;;;;;;;;5034593;28;20046;-71
2023/01/30 14:53:50;;;;;;;7.05;2.30;;;;;;;;;;5030777;28;20049;-71